createdAt,value
2023-05-09T00:02:20.834Z,99.90
2023-05-09T00:06:27.045Z,99.90
2023-05-09T00:10:28.976Z,99.90
2023-05-09T00:14:31.039Z,99.90
2023-05-09T00:18:34.141Z,99.90
2023-05-09T00:22:36.011Z,99.90
2023-05-09T00:26:37.779Z,99.90
2023-05-09T00:30:39.445Z,99.90
2023-05-09T00:34:41.534Z,99.90
2023-05-09T00:38:43.451Z,99.90
2023-05-09T00:42:46.347Z,99.90
2023-05-09T00:46:48.101Z,99.90
2023-05-09T00:50:52.928Z,99.90
2023-05-09T00:54:55.042Z,99.90
2023-05-09T00:58:59.080Z,99.90
2023-05-09T01:03:00.948Z,99.90
2023-05-09T01:07:23.308Z,99.90
2023-05-09T01:11:49.423Z,99.90
2023-05-09T01:16:06.344Z,99.90
2023-05-09T01:20:26.884Z,99.90
2023-05-09T01:24:52.837Z,99.90
2023-05-09T01:29:32.110Z,99.90
2023-05-09T01:33:34.290Z,99.90
2023-05-09T01:37:36.573Z,99.90
2023-05-09T01:41:38.342Z,99.90
2023-05-09T01:45:40.418Z,99.90
2023-05-09T01:49:42.129Z,99.90
2023-05-09T01:53:43.849Z,99.90
2023-05-09T01:57:45.590Z,99.90
2023-05-09T02:01:55.267Z,99.90
2023-05-09T02:05:57.041Z,99.90
2023-05-09T02:10:05.216Z,99.90
2023-05-09T02:14:15.069Z,99.90
2023-05-09T02:18:23.084Z,99.90
2023-05-09T02:22:31.093Z,99.90
2023-05-09T02:26:32.993Z,99.90
2023-05-09T02:30:42.078Z,99.90
2023-05-09T02:34:43.901Z,99.90
2023-05-09T02:38:45.875Z,99.90
2023-05-09T02:42:47.510Z,99.90
2023-05-09T02:46:49.220Z,99.90
2023-05-09T02:50:51.064Z,99.90
2023-05-09T02:54:52.815Z,99.90
2023-05-09T02:58:54.515Z,99.90
2023-05-09T03:02:56.305Z,99.90
2023-05-09T03:06:58.010Z,99.90
2023-05-09T03:10:59.700Z,99.90
2023-05-09T03:15:01.648Z,99.90
2023-05-09T03:19:03.618Z,99.90
2023-05-09T03:23:10.132Z,99.90
2023-05-09T03:27:11.983Z,99.90
2023-05-09T03:31:13.731Z,99.90
2023-05-09T03:35:18.092Z,99.90
2023-05-09T03:39:19.949Z,99.90
2023-05-09T03:43:21.841Z,99.90
2023-05-09T03:47:23.738Z,99.90
2023-05-09T03:51:25.681Z,99.90
2023-05-09T03:55:27.621Z,99.90
2023-05-09T03:59:29.328Z,99.90
2023-05-09T04:03:31.099Z,99.90
2023-05-09T04:07:32.925Z,99.90
2023-05-09T04:11:34.689Z,99.90
2023-05-09T04:15:36.419Z,99.90
2023-05-09T04:19:38.128Z,99.90
2023-05-09T04:23:46.478Z,99.90
2023-05-09T04:27:48.186Z,99.90
2023-05-09T04:31:50.132Z,99.90
2023-05-09T04:35:52.355Z,99.50
2023-05-09T04:39:54.032Z,99.10
2023-05-09T04:43:55.970Z,98.30
2023-05-09T04:47:57.994Z,97.60
2023-05-09T04:52:07.244Z,97.20
2023-05-09T04:56:11.993Z,96.90
2023-05-09T05:00:16.080Z,96.30
2023-05-09T05:04:18.053Z,96.00
2023-05-09T05:08:26.908Z,95.20
2023-05-09T05:12:28.738Z,94.80
2023-05-09T05:16:30.683Z,94.40
2023-05-09T05:20:32.702Z,93.70
2023-05-09T05:24:34.752Z,93.50
2023-05-09T05:28:36.491Z,92.40
2023-05-09T05:32:38.399Z,92.00
2023-05-09T05:36:40.197Z,91.30
2023-05-09T05:40:42.009Z,92.00
2023-05-09T05:44:43.944Z,91.40
2023-05-09T05:48:45.734Z,90.90
2023-05-09T05:52:47.620Z,90.10
2023-05-09T05:56:49.413Z,88.00
2023-05-09T06:01:06.547Z,88.50
2023-05-09T06:05:34.964Z,88.50
2023-05-09T06:09:36.719Z,86.00
2023-05-09T06:13:38.606Z,85.40
2023-05-09T06:17:44.261Z,86.70
2023-05-09T06:21:46.168Z,85.90
2023-05-09T06:25:48.966Z,84.20
2023-05-09T06:29:52.827Z,84.90
2023-05-09T06:33:54.925Z,82.60
2023-05-09T06:37:56.702Z,83.60
2023-05-09T06:41:58.459Z,83.30
2023-05-09T06:46:00.332Z,83.90
2023-05-09T06:50:02.162Z,83.00
2023-05-09T06:54:04.315Z,83.60
2023-05-09T06:58:06.044Z,83.00
2023-05-09T07:02:07.936Z,83.20
2023-05-09T07:06:12.029Z,83.70
2023-05-09T07:10:13.853Z,83.50
2023-05-09T07:14:15.577Z,83.20
2023-05-09T07:18:17.272Z,83.60
2023-05-09T07:22:19.211Z,83.20
2023-05-09T07:26:21.542Z,83.20
2023-05-09T07:30:23.380Z,82.40
2023-05-09T07:34:25.534Z,82.80
2023-05-09T07:38:27.555Z,83.00
2023-05-09T07:42:30.510Z,84.30
2023-05-09T07:46:40.385Z,83.10
2023-05-09T07:50:42.185Z,82.60
2023-05-09T07:54:44.643Z,82.30
2023-05-09T07:58:46.350Z,82.90
2023-05-09T08:02:49.321Z,81.80
2023-05-09T08:06:51.162Z,82.70
2023-05-09T08:10:52.900Z,81.60
2023-05-09T08:14:56.016Z,81.50
2023-05-09T08:18:58.211Z,82.10
2023-05-09T08:23:00.132Z,83.00
2023-05-09T08:27:01.970Z,82.40
2023-05-09T08:31:05.076Z,82.40
2023-05-09T08:35:09.339Z,82.10
2023-05-09T08:39:11.504Z,82.70
2023-05-09T08:43:20.509Z,83.00
2023-05-09T08:47:22.524Z,83.10
2023-05-09T08:51:24.958Z,82.70
2023-05-09T08:55:45.448Z,81.10
2023-05-09T08:59:51.684Z,80.80
2023-05-09T09:04:01.591Z,81.90
2023-05-09T09:08:09.893Z,82.70
2023-05-09T09:12:11.903Z,82.60
2023-05-09T09:16:18.696Z,82.90
2023-05-09T09:20:26.975Z,83.40
2023-05-09T09:24:34.900Z,82.30
2023-05-09T09:28:37.071Z,82.50
2023-05-09T09:32:42.140Z,82.30
2023-05-09T09:36:43.975Z,83.90
2023-05-09T09:41:04.022Z,83.60
2023-05-09T09:45:13.593Z,84.00
2023-05-09T09:49:17.129Z,82.80
2023-05-09T09:53:20.457Z,84.20
2023-05-09T09:57:38.423Z,85.20
2023-05-09T10:02:05.921Z,84.40
2023-05-09T10:06:13.080Z,84.80
2023-05-09T10:10:15.152Z,84.60
2023-05-09T10:14:21.622Z,84.70
2023-05-09T10:18:26.616Z,85.60
2023-05-09T10:22:28.617Z,84.80
2023-05-09T10:26:31.902Z,85.70
2023-05-09T10:30:36.036Z,86.00
2023-05-09T10:34:40.480Z,84.10
2023-05-09T10:38:47.893Z,84.10
2023-05-09T10:42:49.664Z,85.90
2023-05-09T10:46:51.503Z,83.10
2023-05-09T10:50:55.068Z,83.80
2023-05-09T10:55:05.337Z,83.10
2023-05-09T10:59:42.239Z,83.20
2023-05-09T11:03:58.029Z,83.00
2023-05-09T11:08:18.681Z,81.30
2023-05-09T11:12:23.970Z,82.80
2023-05-09T11:16:28.148Z,80.80
2023-05-09T11:20:30.121Z,82.50
2023-05-09T11:24:39.396Z,81.40
2023-05-09T11:28:56.663Z,82.10
2023-05-09T11:33:31.314Z,78.40
2023-05-09T11:37:36.855Z,80.10
2023-05-09T11:41:49.778Z,77.80
2023-05-09T11:45:51.958Z,78.10
2023-05-09T11:50:15.742Z,78.70
2023-05-09T11:54:23.945Z,79.90
2023-05-09T11:58:25.820Z,78.20
2023-05-09T12:02:56.177Z,79.60
2023-05-09T12:07:08.297Z,79.50
2023-05-09T12:11:11.739Z,78.80
2023-05-09T12:15:17.256Z,79.90
2023-05-09T12:19:19.918Z,80.40
2023-05-09T12:42:30.074Z,77.80
2023-05-09T12:46:32.133Z,75.00
2023-05-09T12:50:36.669Z,75.00
2023-05-09T12:54:38.851Z,76.70
2023-05-09T12:58:41.031Z,74.70
2023-05-09T13:02:43.471Z,74.20
2023-05-09T13:06:52.418Z,74.70
2023-05-09T13:11:04.068Z,75.10
2023-05-09T13:15:17.173Z,74.80
2023-05-09T13:19:19.319Z,74.60
2023-05-09T13:23:24.991Z,74.40
2023-05-09T13:27:27.980Z,74.10
2023-05-09T13:31:30.302Z,73.50
2023-05-09T13:35:32.151Z,75.70
2023-05-09T13:39:33.956Z,75.40
2023-05-09T13:43:36.073Z,73.70
2023-05-09T13:47:40.566Z,75.80
2023-05-09T13:52:11.976Z,77.10
2023-05-09T13:56:14.222Z,74.20
2023-05-09T14:00:16.318Z,75.20
2023-05-09T14:04:18.172Z,76.20
2023-05-09T14:08:22.829Z,76.10
2023-05-09T14:12:24.777Z,77.20
2023-05-09T14:16:26.964Z,76.90
2023-05-09T14:20:31.596Z,75.20
2023-05-09T14:24:33.407Z,77.50
2023-05-09T14:28:41.029Z,78.40
2023-05-09T14:42:57.018Z,79.40
2023-05-09T14:46:59.382Z,79.70
2023-05-09T14:51:01.742Z,79.20
2023-05-09T14:55:03.851Z,78.90
2023-05-09T14:59:05.910Z,79.80
2023-05-09T15:03:24.944Z,81.10
2023-05-09T15:07:30.017Z,81.80
2023-05-09T15:11:36.424Z,82.40
2023-05-09T15:15:48.490Z,81.70
2023-05-09T15:19:50.780Z,81.20
2023-05-09T15:26:05.979Z,81.90
2023-05-09T15:29:17.211Z,82.70
2023-05-09T16:17:04.950Z,85.00
2023-05-09T16:46:04.440Z,87.10
2023-05-09T16:50:06.535Z,88.30
2023-05-09T16:54:08.482Z,86.60
2023-05-09T16:58:10.970Z,86.00
2023-05-09T17:02:15.437Z,86.40
2023-05-09T17:06:22.936Z,86.90
2023-05-09T17:10:42.530Z,86.80
2023-05-09T17:14:59.443Z,86.70
2023-05-09T17:19:04.598Z,86.40
2023-05-09T17:23:06.541Z,86.80
2023-05-09T17:27:11.136Z,86.60
2023-05-09T17:31:23.394Z,86.30
2023-05-09T17:35:35.745Z,86.80
2023-05-09T17:40:06.266Z,87.30
2023-05-09T17:44:58.518Z,87.80
2023-05-09T17:59:15.828Z,89.50
2023-05-09T18:03:17.853Z,90.00
2023-05-09T18:07:30.624Z,90.20
2023-05-09T18:11:46.817Z,90.30
2023-05-09T18:15:52.849Z,90.30
2023-05-09T18:20:01.705Z,90.30
2023-05-09T18:24:20.100Z,90.40
2023-05-09T18:29:07.183Z,90.40
2023-05-09T18:33:10.054Z,90.60
2023-05-09T18:37:14.808Z,90.80
2023-05-09T18:46:13.348Z,91.10
2023-05-09T18:55:06.635Z,91.50
2023-05-09T18:59:22.585Z,91.80
2023-05-09T19:55:17.542Z,94.70
2023-05-09T19:59:47.989Z,94.90
2023-05-09T20:03:53.393Z,95.10
2023-05-09T20:07:55.611Z,95.30
2023-05-09T20:13:03.368Z,95.50
2023-05-09T20:22:04.346Z,96.00
2023-05-09T20:26:08.997Z,96.10
2023-05-09T20:30:17.798Z,96.30
2023-05-09T20:34:30.245Z,96.50
2023-05-09T20:38:32.235Z,96.60
2023-05-09T20:42:38.330Z,96.80
2023-05-09T20:46:49.872Z,96.80
2023-05-09T20:50:51.949Z,97.40
2023-05-09T20:55:24.083Z,97.00
2023-05-09T20:59:25.954Z,97.00
2023-05-09T21:03:28.173Z,97.20
2023-05-09T21:07:29.953Z,97.20
2023-05-09T21:11:31.737Z,97.30
2023-05-09T21:15:54.905Z,97.30
2023-05-09T21:19:56.982Z,97.20
2023-05-09T21:24:05.401Z,97.20
2023-05-09T21:28:10.448Z,97.20
2023-05-09T21:32:14.986Z,97.40
2023-05-09T21:36:19.693Z,97.30
2023-05-09T21:40:21.550Z,97.40
2023-05-09T21:44:23.621Z,97.90
2023-05-09T21:48:25.490Z,97.50
2023-05-09T21:52:27.251Z,97.60
2023-05-09T21:56:29.216Z,98.10
2023-05-09T22:00:30.999Z,97.80
2023-05-09T22:04:32.822Z,97.80
2023-05-09T22:08:34.573Z,98.00
2023-05-09T22:12:36.439Z,98.20
2023-05-09T22:16:38.321Z,98.30
2023-05-09T22:20:40.382Z,98.50
2023-05-09T22:24:42.291Z,98.50
2023-05-09T22:28:44.065Z,99.10
2023-05-09T22:32:45.960Z,98.80
2023-05-09T22:36:47.752Z,98.90
2023-05-09T22:40:49.403Z,99.00
2023-05-09T22:44:52.773Z,99.10
2023-05-09T22:48:54.520Z,99.20
2023-05-09T22:52:56.248Z,99.20
2023-05-09T22:56:58.005Z,99.20
2023-05-09T23:00:59.767Z,99.10
2023-05-09T23:05:01.591Z,99.30
2023-05-09T23:09:03.527Z,99.40
2023-05-09T23:13:05.319Z,99.50
2023-05-09T23:17:07.174Z,99.60
2023-05-09T23:21:09.899Z,99.70
2023-05-09T23:25:11.736Z,99.70
2023-05-09T23:29:13.392Z,99.80
2023-05-09T23:33:16.245Z,99.90
2023-05-09T23:37:17.963Z,99.90
2023-05-09T23:41:20.188Z,99.90
2023-05-09T23:45:21.972Z,99.90
2023-05-09T23:49:23.696Z,99.90
2023-05-09T23:53:29.114Z,99.90
2023-05-09T23:57:33.315Z,99.90
